sensor_id;sensor_type;location;lat;lon;timestamp;P1;durP1;ratioP1;P2;durP2;ratioP2
26413;SDS011;14108;53.668;10.288;2022-09-06T00:02:17;2.62;;;1.00;;
26413;SDS011;14108;53.668;10.288;2022-09-06T00:04:44;2.30;;;1.30;;
26413;SDS011;14108;53.668;10.288;2022-09-06T00:07:12;1.45;;;1.10;;
26413;SDS011;14108;53.668;10.288;2022-09-06T00:09:39;2.30;;;0.90;;
26413;SDS011;14108;53.668;10.288;2022-09-06T00:12:07;1.42;;;0.93;;
26413;SDS011;14108;53.668;10.288;2022-09-06T00:14:34;0.95;;;0.95;;
26413;SDS011;14108;53.668;10.288;2022-09-06T00:17:01;3.35;;;0.93;;
26413;SDS011;14108;53.668;10.288;2022-09-06T00:19:28;2.03;;;1.20;;
26413;SDS011;14108;53.668;10.288;2022-09-06T00:21:55;1.40;;;1.08;;
26413;SDS011;14108;53.668;10.288;2022-09-06T00:24:22;2.12;;;1.10;;
26413;SDS011;14108;53.668;10.288;2022-09-06T00:26:49;1.20;;;1.05;;
26413;SDS011;14108;53.668;10.288;2022-09-06T00:29:16;2.00;;;1.20;;
26413;SDS011;14108;53.668;10.288;2022-09-06T00:31:43;1.98;;;1.20;;
26413;SDS011;14108;53.668;10.288;2022-09-06T00:34:10;1.33;;;1.00;;
26413;SDS011;14108;53.668;10.288;2022-09-06T00:36:37;2.47;;;1.02;;
26413;SDS011;14108;53.668;10.288;2022-09-06T00:39:04;1.05;;;0.95;;
26413;SDS011;14108;53.668;10.288;2022-09-06T00:41:31;1.87;;;1.15;;
26413;SDS011;14108;53.668;10.288;2022-09-06T00:43:58;1.58;;;1.25;;
26413;SDS011;14108;53.668;10.288;2022-09-06T00:46:25;1.65;;;1.25;;
26413;SDS011;14108;53.668;10.288;2022-09-06T00:48:54;3.62;;;1.17;;
26413;SDS011;14108;53.668;10.288;2022-09-06T00:51:22;1.67;;;1.10;;
26413;SDS011;14108;53.668;10.288;2022-09-06T00:53:50;3.60;;;1.35;;
26413;SDS011;14108;53.668;10.288;2022-09-06T00:56:17;3.22;;;1.20;;
26413;SDS011;14108;53.668;10.288;2022-09-06T00:58:44;4.85;;;1.17;;
26413;SDS011;14108;53.668;10.288;2022-09-06T01:01:12;1.23;;;1.10;;
26413;SDS011;14108;53.668;10.288;2022-09-06T01:03:40;1.95;;;1.30;;
26413;SDS011;14108;53.668;10.288;2022-09-06T01:06:11;3.37;;;1.33;;
26413;SDS011;14108;53.668;10.288;2022-09-06T01:08:43;1.62;;;1.10;;
26413;SDS011;14108;53.668;10.288;2022-09-06T01:11:20;2.05;;;1.58;;
26413;SDS011;14108;53.668;10.288;2022-09-06T01:13:49;1.87;;;1.17;;
26413;SDS011;14108;53.668;10.288;2022-09-06T01:16:20;2.67;;;1.10;;
26413;SDS011;14108;53.668;10.288;2022-09-06T01:18:53;2.15;;;1.20;;
26413;SDS011;14108;53.668;10.288;2022-09-06T01:21:29;1.62;;;1.27;;
26413;SDS011;14108;53.668;10.288;2022-09-06T01:24:07;3.80;;;1.33;;
26413;SDS011;14108;53.668;10.288;2022-09-06T01:29:32;2.83;;;1.35;;
26413;SDS011;14108;53.668;10.288;2022-09-06T01:32:03;3.90;;;1.30;;
26413;SDS011;14108;53.668;10.288;2022-09-06T01:34:33;2.08;;;1.30;;
26413;SDS011;14108;53.668;10.288;2022-09-06T01:37:01;3.33;;;1.23;;
26413;SDS011;14108;53.668;10.288;2022-09-06T01:39:31;1.98;;;1.30;;
26413;SDS011;14108;53.668;10.288;2022-09-06T01:41:59;3.92;;;1.15;;
26413;SDS011;14108;53.668;10.288;2022-09-06T01:44:29;3.55;;;1.67;;
26413;SDS011;14108;53.668;10.288;2022-09-06T01:46:57;2.72;;;1.85;;
26413;SDS011;14108;53.668;10.288;2022-09-06T01:49:31;2.22;;;1.87;;
26413;SDS011;14108;53.668;10.288;2022-09-06T01:52:02;2.30;;;1.30;;
26413;SDS011;14108;53.668;10.288;2022-09-06T01:54:38;3.20;;;1.30;;
26413;SDS011;14108;53.668;10.288;2022-09-06T01:57:12;2.75;;;1.10;;
26413;SDS011;14108;53.668;10.288;2022-09-06T01:59:47;1.92;;;1.25;;
26413;SDS011;14108;53.668;10.288;2022-09-06T02:02:17;2.78;;;1.40;;
26413;SDS011;14108;53.668;10.288;2022-09-06T02:04:46;1.62;;;1.20;;
26413;SDS011;14108;53.668;10.288;2022-09-06T02:07:19;2.42;;;1.17;;
26413;SDS011;14108;53.668;10.288;2022-09-06T02:09:47;2.03;;;1.30;;
26413;SDS011;14108;53.668;10.288;2022-09-06T02:12:15;3.20;;;1.30;;
26413;SDS011;14108;53.668;10.288;2022-09-06T02:14:46;4.70;;;1.40;;
26413;SDS011;14108;53.668;10.288;2022-09-06T02:17:16;3.42;;;1.50;;
26413;SDS011;14108;53.668;10.288;2022-09-06T02:19:46;1.35;;;1.23;;
26413;SDS011;14108;53.668;10.288;2022-09-06T02:22:15;2.87;;;1.25;;
26413;SDS011;14108;53.668;10.288;2022-09-06T02:24:45;7.22;;;1.50;;
26413;SDS011;14108;53.668;10.288;2022-09-06T02:27:13;2.20;;;1.30;;
26413;SDS011;14108;53.668;10.288;2022-09-06T02:29:41;2.58;;;1.25;;
26413;SDS011;14108;53.668;10.288;2022-09-06T02:32:09;1.60;;;1.20;;
26413;SDS011;14108;53.668;10.288;2022-09-06T02:34:39;2.55;;;1.20;;
26413;SDS011;14108;53.668;10.288;2022-09-06T02:37:09;2.35;;;1.37;;
26413;SDS011;14108;53.668;10.288;2022-09-06T02:39:37;1.73;;;1.30;;
26413;SDS011;14108;53.668;10.288;2022-09-06T02:42:04;3.25;;;1.60;;
26413;SDS011;14108;53.668;10.288;2022-09-06T02:44:31;2.20;;;1.50;;
26413;SDS011;14108;53.668;10.288;2022-09-06T02:46:58;5.57;;;1.40;;
26413;SDS011;14108;53.668;10.288;2022-09-06T02:49:26;3.15;;;1.27;;
26413;SDS011;14108;53.668;10.288;2022-09-06T02:51:53;1.67;;;1.40;;
26413;SDS011;14108;53.668;10.288;2022-09-06T02:54:20;1.75;;;1.30;;
26413;SDS011;14108;53.668;10.288;2022-09-06T02:56:47;1.60;;;1.35;;
26413;SDS011;14108;53.668;10.288;2022-09-06T02:59:14;2.47;;;1.30;;
26413;SDS011;14108;53.668;10.288;2022-09-06T03:01:41;2.03;;;1.45;;
26413;SDS011;14108;53.668;10.288;2022-09-06T03:04:08;2.65;;;1.30;;
26413;SDS011;14108;53.668;10.288;2022-09-06T03:06:35;4.62;;;1.40;;
26413;SDS011;14108;53.668;10.288;2022-09-06T03:09:02;1.27;;;1.17;;
26413;SDS011;14108;53.668;10.288;2022-09-06T03:11:29;1.62;;;1.27;;
26413;SDS011;14108;53.668;10.288;2022-09-06T03:13:56;1.52;;;1.10;;
26413;SDS011;14108;53.668;10.288;2022-09-06T03:16:23;2.00;;;1.60;;
26413;SDS011;14108;53.668;10.288;2022-09-06T03:18:50;2.80;;;1.27;;
26413;SDS011;14108;53.668;10.288;2022-09-06T03:21:17;1.12;;;1.02;;
26413;SDS011;14108;53.668;10.288;2022-09-06T03:23:44;1.87;;;1.27;;
26413;SDS011;14108;53.668;10.288;2022-09-06T03:26:11;6.07;;;1.80;;
26413;SDS011;14108;53.668;10.288;2022-09-06T03:28:38;1.83;;;1.40;;
26413;SDS011;14108;53.668;10.288;2022-09-06T03:31:05;2.28;;;1.37;;
26413;SDS011;14108;53.668;10.288;2022-09-06T03:33:32;3.30;;;1.50;;
26413;SDS011;14108;53.668;10.288;2022-09-06T03:36:00;3.00;;;1.30;;
26413;SDS011;14108;53.668;10.288;2022-09-06T03:38:27;1.98;;;1.40;;
26413;SDS011;14108;53.668;10.288;2022-09-06T03:40:55;2.15;;;1.30;;
26413;SDS011;14108;53.668;10.288;2022-09-06T03:43:22;2.65;;;1.40;;
26413;SDS011;14108;53.668;10.288;2022-09-06T03:45:50;2.25;;;1.30;;
26413;SDS011;14108;53.668;10.288;2022-09-06T03:48:18;2.85;;;1.60;;
26413;SDS011;14108;53.668;10.288;2022-09-06T03:50:46;1.75;;;1.33;;
26413;SDS011;14108;53.668;10.288;2022-09-06T03:53:13;1.50;;;1.15;;
26413;SDS011;14108;53.668;10.288;2022-09-06T03:55:42;5.10;;;1.30;;
26413;SDS011;14108;53.668;10.288;2022-09-06T03:58:10;2.28;;;1.42;;
26413;SDS011;14108;53.668;10.288;2022-09-06T04:00:37;8.93;;;1.17;;
26413;SDS011;14108;53.668;10.288;2022-09-06T04:03:04;2.03;;;1.33;;
26413;SDS011;14108;53.668;10.288;2022-09-06T04:05:31;1.75;;;1.30;;
26413;SDS011;14108;53.668;10.288;2022-09-06T04:07:58;2.00;;;1.00;;
26413;SDS011;14108;53.668;10.288;2022-09-06T04:10:25;3.53;;;1.50;;
26413;SDS011;14108;53.668;10.288;2022-09-06T04:12:52;1.30;;;1.05;;
26413;SDS011;14108;53.668;10.288;2022-09-06T04:15:19;2.50;;;1.40;;
26413;SDS011;14108;53.668;10.288;2022-09-06T04:17:46;1.45;;;1.20;;
26413;SDS011;14108;53.668;10.288;2022-09-06T04:20:13;2.08;;;1.27;;
26413;SDS011;14108;53.668;10.288;2022-09-06T04:22:40;1.85;;;1.20;;
26413;SDS011;14108;53.668;10.288;2022-09-06T04:25:08;3.17;;;1.10;;
26413;SDS011;14108;53.668;10.288;2022-09-06T04:27:36;1.90;;;1.37;;
26413;SDS011;14108;53.668;10.288;2022-09-06T04:30:03;2.08;;;1.17;;
26413;SDS011;14108;53.668;10.288;2022-09-06T04:32:30;4.95;;;1.42;;
26413;SDS011;14108;53.668;10.288;2022-09-06T04:34:57;2.20;;;1.30;;
26413;SDS011;14108;53.668;10.288;2022-09-06T04:37:24;2.83;;;1.20;;
26413;SDS011;14108;53.668;10.288;2022-09-06T04:39:51;2.85;;;1.25;;
26413;SDS011;14108;53.668;10.288;2022-09-06T04:42:19;1.98;;;1.17;;
26413;SDS011;14108;53.668;10.288;2022-09-06T04:44:49;4.68;;;1.50;;
26413;SDS011;14108;53.668;10.288;2022-09-06T04:47:16;1.90;;;1.42;;
26413;SDS011;14108;53.668;10.288;2022-09-06T04:49:44;1.37;;;1.10;;
26413;SDS011;14108;53.668;10.288;2022-09-06T04:52:12;1.80;;;1.02;;
26413;SDS011;14108;53.668;10.288;2022-09-06T04:54:39;3.22;;;1.30;;
26413;SDS011;14108;53.668;10.288;2022-09-06T04:57:06;1.75;;;1.35;;
26413;SDS011;14108;53.668;10.288;2022-09-06T04:59:33;2.90;;;1.30;;
26413;SDS011;14108;53.668;10.288;2022-09-06T05:02:00;4.05;;;1.40;;
26413;SDS011;14108;53.668;10.288;2022-09-06T05:04:27;3.05;;;1.15;;
26413;SDS011;14108;53.668;10.288;2022-09-06T05:07:00;5.15;;;1.20;;
26413;SDS011;14108;53.668;10.288;2022-09-06T05:09:29;1.85;;;1.10;;
26413;SDS011;14108;53.668;10.288;2022-09-06T05:11:57;6.12;;;1.10;;
26413;SDS011;14108;53.668;10.288;2022-09-06T05:14:24;4.35;;;1.10;;
26413;SDS011;14108;53.668;10.288;2022-09-06T05:16:51;1.55;;;1.10;;
26413;SDS011;14108;53.668;10.288;2022-09-06T05:19:19;1.42;;;1.23;;
26413;SDS011;14108;53.668;10.288;2022-09-06T05:21:46;1.83;;;1.17;;
26413;SDS011;14108;53.668;10.288;2022-09-06T05:24:13;1.70;;;1.25;;
26413;SDS011;14108;53.668;10.288;2022-09-06T05:26:40;5.80;;;1.30;;
26413;SDS011;14108;53.668;10.288;2022-09-06T05:29:07;5.25;;;1.77;;
26413;SDS011;14108;53.668;10.288;2022-09-06T05:31:34;3.30;;;1.10;;
26413;SDS011;14108;53.668;10.288;2022-09-06T05:34:01;2.22;;;1.25;;
26413;SDS011;14108;53.668;10.288;2022-09-06T05:36:29;3.50;;;1.27;;
26413;SDS011;14108;53.668;10.288;2022-09-06T05:38:56;1.45;;;1.10;;
26413;SDS011;14108;53.668;10.288;2022-09-06T05:41:24;2.55;;;1.10;;
26413;SDS011;14108;53.668;10.288;2022-09-06T05:43:51;2.75;;;1.23;;
26413;SDS011;14108;53.668;10.288;2022-09-06T05:46:18;3.28;;;1.10;;
26413;SDS011;14108;53.668;10.288;2022-09-06T05:48:50;2.22;;;1.12;;
26413;SDS011;14108;53.668;10.288;2022-09-06T05:51:17;1.35;;;1.00;;
26413;SDS011;14108;53.668;10.288;2022-09-06T05:53:44;2.67;;;1.05;;
26413;SDS011;14108;53.668;10.288;2022-09-06T05:56:12;2.12;;;1.45;;
26413;SDS011;14108;53.668;10.288;2022-09-06T05:58:40;3.92;;;1.60;;
26413;SDS011;14108;53.668;10.288;2022-09-06T06:01:07;2.60;;;1.08;;
26413;SDS011;14108;53.668;10.288;2022-09-06T06:03:39;3.05;;;1.30;;
26413;SDS011;14108;53.668;10.288;2022-09-06T06:06:06;3.75;;;1.30;;
26413;SDS011;14108;53.668;10.288;2022-09-06T06:08:33;1.33;;;1.20;;
26413;SDS011;14108;53.668;10.288;2022-09-06T06:11:00;3.28;;;1.00;;
26413;SDS011;14108;53.668;10.288;2022-09-06T06:13:28;1.42;;;1.17;;
26413;SDS011;14108;53.668;10.288;2022-09-06T06:16:00;1.50;;;1.08;;
26413;SDS011;14108;53.668;10.288;2022-09-06T06:18:28;1.60;;;1.30;;
26413;SDS011;14108;53.668;10.288;2022-09-06T06:21:06;3.42;;;1.00;;
26413;SDS011;14108;53.668;10.288;2022-09-06T06:23:33;1.92;;;1.10;;
26413;SDS011;14108;53.668;10.288;2022-09-06T06:26:00;2.75;;;1.35;;
26413;SDS011;14108;53.668;10.288;2022-09-06T06:28:27;1.52;;;1.20;;
26413;SDS011;14108;53.668;10.288;2022-09-06T06:30:54;3.67;;;1.00;;
26413;SDS011;14108;53.668;10.288;2022-09-06T06:33:21;1.65;;;1.05;;
26413;SDS011;14108;53.668;10.288;2022-09-06T06:35:55;1.83;;;1.08;;
26413;SDS011;14108;53.668;10.288;2022-09-06T06:38:22;1.27;;;1.00;;
26413;SDS011;14108;53.668;10.288;2022-09-06T06:40:49;1.65;;;1.10;;
26413;SDS011;14108;53.668;10.288;2022-09-06T06:43:16;2.87;;;1.70;;
26413;SDS011;14108;53.668;10.288;2022-09-06T06:45:47;5.70;;;1.20;;
26413;SDS011;14108;53.668;10.288;2022-09-06T06:48:14;3.60;;;1.20;;
26413;SDS011;14108;53.668;10.288;2022-09-06T06:50:41;3.47;;;1.10;;
26413;SDS011;14108;53.668;10.288;2022-09-06T06:53:09;2.78;;;1.35;;
26413;SDS011;14108;53.668;10.288;2022-09-06T06:55:36;1.90;;;1.30;;
26413;SDS011;14108;53.668;10.288;2022-09-06T06:58:03;1.55;;;1.20;;
26413;SDS011;14108;53.668;10.288;2022-09-06T07:00:30;1.52;;;0.95;;
26413;SDS011;14108;53.668;10.288;2022-09-06T07:02:57;1.67;;;1.10;;
26413;SDS011;14108;53.668;10.288;2022-09-06T07:05:24;2.97;;;1.25;;
26413;SDS011;14108;53.668;10.288;2022-09-06T07:07:51;1.58;;;1.20;;
26413;SDS011;14108;53.668;10.288;2022-09-06T07:10:18;3.83;;;1.37;;
26413;SDS011;14108;53.668;10.288;2022-09-06T07:12:45;2.05;;;1.30;;
26413;SDS011;14108;53.668;10.288;2022-09-06T07:17:59;2.22;;;1.20;;
26413;SDS011;14108;53.668;10.288;2022-09-06T07:20:26;2.20;;;1.40;;
26413;SDS011;14108;53.668;10.288;2022-09-06T07:22:57;5.43;;;1.58;;
26413;SDS011;14108;53.668;10.288;2022-09-06T07:25:25;1.65;;;1.35;;
26413;SDS011;14108;53.668;10.288;2022-09-06T07:27:55;1.60;;;1.20;;
26413;SDS011;14108;53.668;10.288;2022-09-06T07:30:23;3.42;;;1.30;;
26413;SDS011;14108;53.668;10.288;2022-09-06T07:32:50;3.10;;;1.30;;
26413;SDS011;14108;53.668;10.288;2022-09-06T07:35:17;1.80;;;1.25;;
26413;SDS011;14108;53.668;10.288;2022-09-06T07:37:50;3.00;;;1.10;;
26413;SDS011;14108;53.668;10.288;2022-09-06T07:40:18;3.63;;;1.40;;
26413;SDS011;14108;53.668;10.288;2022-09-06T07:42:45;1.92;;;1.12;;
26413;SDS011;14108;53.668;10.288;2022-09-06T07:45:12;3.87;;;1.60;;
26413;SDS011;14108;53.668;10.288;2022-09-06T07:47:39;3.55;;;1.10;;
26413;SDS011;14108;53.668;10.288;2022-09-06T07:50:06;2.33;;;1.48;;
26413;SDS011;14108;53.668;10.288;2022-09-06T07:52:33;2.87;;;1.48;;
26413;SDS011;14108;53.668;10.288;2022-09-06T07:55:00;2.37;;;1.30;;
26413;SDS011;14108;53.668;10.288;2022-09-06T07:57:28;2.92;;;0.95;;
26413;SDS011;14108;53.668;10.288;2022-09-06T07:59:55;2.42;;;1.50;;
26413;SDS011;14108;53.668;10.288;2022-09-06T08:02:22;2.67;;;1.55;;
26413;SDS011;14108;53.668;10.288;2022-09-06T08:04:49;1.40;;;1.00;;
26413;SDS011;14108;53.668;10.288;2022-09-06T08:07:16;2.75;;;1.58;;
26413;SDS011;14108;53.668;10.288;2022-09-06T08:09:43;1.60;;;1.30;;
26413;SDS011;14108;53.668;10.288;2022-09-06T08:12:10;1.58;;;1.17;;
26413;SDS011;14108;53.668;10.288;2022-09-06T08:14:37;4.97;;;1.60;;
26413;SDS011;14108;53.668;10.288;2022-09-06T08:17:04;3.25;;;1.40;;
26413;SDS011;14108;53.668;10.288;2022-09-06T08:19:31;3.47;;;1.40;;
26413;SDS011;14108;53.668;10.288;2022-09-06T08:21:59;3.10;;;1.35;;
26413;SDS011;14108;53.668;10.288;2022-09-06T08:24:26;3.10;;;1.25;;
26413;SDS011;14108;53.668;10.288;2022-09-06T08:26:53;7.35;;;1.50;;
26413;SDS011;14108;53.668;10.288;2022-09-06T08:29:20;1.92;;;1.30;;
26413;SDS011;14108;53.668;10.288;2022-09-06T08:31:47;2.75;;;1.23;;
26413;SDS011;14108;53.668;10.288;2022-09-06T08:34:14;4.47;;;1.40;;
26413;SDS011;14108;53.668;10.288;2022-09-06T08:36:42;5.22;;;1.40;;
26413;SDS011;14108;53.668;10.288;2022-09-06T08:39:10;3.08;;;1.30;;
26413;SDS011;14108;53.668;10.288;2022-09-06T08:41:39;1.60;;;1.40;;
26413;SDS011;14108;53.668;10.288;2022-09-06T08:44:12;3.33;;;1.30;;
26413;SDS011;14108;53.668;10.288;2022-09-06T08:46:40;1.52;;;1.20;;
26413;SDS011;14108;53.668;10.288;2022-09-06T08:49:08;2.03;;;1.20;;
26413;SDS011;14108;53.668;10.288;2022-09-06T08:51:39;3.92;;;1.37;;
26413;SDS011;14108;53.668;10.288;2022-09-06T08:54:11;2.28;;;1.40;;
26413;SDS011;14108;53.668;10.288;2022-09-06T08:56:44;1.33;;;1.10;;
26413;SDS011;14108;53.668;10.288;2022-09-06T08:59:16;3.58;;;1.37;;
26413;SDS011;14108;53.668;10.288;2022-09-06T09:01:46;3.20;;;1.40;;
26413;SDS011;14108;53.668;10.288;2022-09-06T09:04:19;2.95;;;1.50;;
26413;SDS011;14108;53.668;10.288;2022-09-06T09:06:49;2.05;;;1.33;;
26413;SDS011;14108;53.668;10.288;2022-09-06T09:09:17;1.95;;;1.58;;
26413;SDS011;14108;53.668;10.288;2022-09-06T09:11:46;3.42;;;1.70;;
26413;SDS011;14108;53.668;10.288;2022-09-06T09:14:14;4.72;;;1.92;;
26413;SDS011;14108;53.668;10.288;2022-09-06T09:16:42;3.70;;;1.60;;
26413;SDS011;14108;53.668;10.288;2022-09-06T09:19:09;4.43;;;1.52;;
26413;SDS011;14108;53.668;10.288;2022-09-06T09:21:37;3.10;;;1.33;;
26413;SDS011;14108;53.668;10.288;2022-09-06T09:24:05;3.08;;;1.40;;
26413;SDS011;14108;53.668;10.288;2022-09-06T09:26:34;2.03;;;1.30;;
26413;SDS011;14108;53.668;10.288;2022-09-06T09:29:02;1.85;;;1.20;;
26413;SDS011;14108;53.668;10.288;2022-09-06T09:31:33;2.45;;;1.48;;
26413;SDS011;14108;53.668;10.288;2022-09-06T09:34:00;4.93;;;1.83;;
26413;SDS011;14108;53.668;10.288;2022-09-06T09:36:29;7.45;;;1.70;;
26413;SDS011;14108;53.668;10.288;2022-09-06T09:38:56;2.37;;;1.58;;
26413;SDS011;14108;53.668;10.288;2022-09-06T09:41:24;2.33;;;1.85;;
26413;SDS011;14108;53.668;10.288;2022-09-06T09:43:55;4.65;;;1.92;;
26413;SDS011;14108;53.668;10.288;2022-09-06T09:46:28;6.97;;;2.03;;
26413;SDS011;14108;53.668;10.288;2022-09-06T09:49:01;3.67;;;1.50;;
26413;SDS011;14108;53.668;10.288;2022-09-06T09:51:29;7.82;;;2.17;;
26413;SDS011;14108;53.668;10.288;2022-09-06T09:53:58;3.78;;;1.60;;
26413;SDS011;14108;53.668;10.288;2022-09-06T09:56:33;6.30;;;1.90;;
26413;SDS011;14108;53.668;10.288;2022-09-06T09:59:01;3.17;;;2.05;;
26413;SDS011;14108;53.668;10.288;2022-09-06T10:01:29;3.22;;;2.00;;
26413;SDS011;14108;53.668;10.288;2022-09-06T10:04:00;4.18;;;1.70;;
26413;SDS011;14108;53.668;10.288;2022-09-06T10:06:27;3.30;;;1.98;;
26413;SDS011;14108;53.668;10.288;2022-09-06T10:08:55;5.60;;;1.62;;
26413;SDS011;14108;53.668;10.288;2022-09-06T10:11:38;6.65;;;1.67;;
26413;SDS011;14108;53.668;10.288;2022-09-06T10:14:12;4.05;;;1.55;;
26413;SDS011;14108;53.668;10.288;2022-09-06T10:16:42;4.00;;;1.73;;
26413;SDS011;14108;53.668;10.288;2022-09-06T10:19:20;2.67;;;1.73;;
26413;SDS011;14108;53.668;10.288;2022-09-06T10:21:48;4.90;;;1.95;;
26413;SDS011;14108;53.668;10.288;2022-09-06T10:24:17;6.90;;;1.80;;
26413;SDS011;14108;53.668;10.288;2022-09-06T10:26:49;2.65;;;1.60;;
26413;SDS011;14108;53.668;10.288;2022-09-06T10:29:18;2.50;;;1.45;;
26413;SDS011;14108;53.668;10.288;2022-09-06T10:31:53;5.72;;;1.58;;
26413;SDS011;14108;53.668;10.288;2022-09-06T10:37:26;2.45;;;1.37;;
26413;SDS011;14108;53.668;10.288;2022-09-06T10:39:55;2.17;;;1.67;;
26413;SDS011;14108;53.668;10.288;2022-09-06T10:42:28;3.65;;;1.62;;
26413;SDS011;14108;53.668;10.288;2022-09-06T10:44:59;2.80;;;1.48;;
26413;SDS011;14108;53.668;10.288;2022-09-06T10:47:30;4.20;;;1.80;;
26413;SDS011;14108;53.668;10.288;2022-09-06T10:49:58;3.65;;;1.80;;
26413;SDS011;14108;53.668;10.288;2022-09-06T10:52:28;6.57;;;1.83;;
26413;SDS011;14108;53.668;10.288;2022-09-06T10:54:57;2.30;;;1.62;;
26413;SDS011;14108;53.668;10.288;2022-09-06T10:57:30;2.05;;;1.65;;
26413;SDS011;14108;53.668;10.288;2022-09-06T11:00:00;4.75;;;1.85;;
26413;SDS011;14108;53.668;10.288;2022-09-06T11:02:32;2.70;;;1.70;;
26413;SDS011;14108;53.668;10.288;2022-09-06T11:05:04;2.42;;;1.60;;
26413;SDS011;14108;53.668;10.288;2022-09-06T11:07:35;5.35;;;1.67;;
26413;SDS011;14108;53.668;10.288;2022-09-06T11:10:04;2.15;;;1.75;;
26413;SDS011;14108;53.668;10.288;2022-09-06T11:12:34;4.22;;;1.55;;
26413;SDS011;14108;53.668;10.288;2022-09-06T11:15:04;5.97;;;2.25;;
26413;SDS011;14108;53.668;10.288;2022-09-06T11:17:33;3.22;;;1.70;;
26413;SDS011;14108;53.668;10.288;2022-09-06T11:20:06;2.80;;;1.83;;
26413;SDS011;14108;53.668;10.288;2022-09-06T11:22:53;4.60;;;1.55;;
26413;SDS011;14108;53.668;10.288;2022-09-06T11:28:10;2.17;;;1.50;;
26413;SDS011;14108;53.668;10.288;2022-09-06T11:30:41;2.10;;;1.45;;
26413;SDS011;14108;53.668;10.288;2022-09-06T11:33:12;3.03;;;1.95;;
26413;SDS011;14108;53.668;10.288;2022-09-06T11:35:44;3.65;;;1.87;;
26413;SDS011;14108;53.668;10.288;2022-09-06T11:38:17;9.30;;;1.80;;
26413;SDS011;14108;53.668;10.288;2022-09-06T11:40:45;2.95;;;1.50;;
26413;SDS011;14108;53.668;10.288;2022-09-06T11:43:14;6.05;;;2.08;;
26413;SDS011;14108;53.668;10.288;2022-09-06T11:45:43;2.92;;;1.50;;
26413;SDS011;14108;53.668;10.288;2022-09-06T11:48:29;3.53;;;2.00;;
26413;SDS011;14108;53.668;10.288;2022-09-06T11:51:02;4.25;;;1.70;;
26413;SDS011;14108;53.668;10.288;2022-09-06T11:53:31;3.62;;;1.70;;
26413;SDS011;14108;53.668;10.288;2022-09-06T11:56:10;2.08;;;1.70;;
26413;SDS011;14108;53.668;10.288;2022-09-06T11:58:45;1.90;;;1.42;;
26413;SDS011;14108;53.668;10.288;2022-09-06T12:01:34;3.12;;;1.73;;
26413;SDS011;14108;53.668;10.288;2022-09-06T12:04:03;2.67;;;1.90;;
26413;SDS011;14108;53.668;10.288;2022-09-06T12:06:31;7.30;;;1.95;;
26413;SDS011;14108;53.668;10.288;2022-09-06T12:09:00;1.62;;;1.50;;
26413;SDS011;14108;53.668;10.288;2022-09-06T12:11:28;2.50;;;1.37;;
26413;SDS011;14108;53.668;10.288;2022-09-06T12:14:00;3.95;;;1.70;;
26413;SDS011;14108;53.668;10.288;2022-09-06T12:19:38;6.43;;;2.47;;
26413;SDS011;14108;53.668;10.288;2022-09-06T12:24:53;2.05;;;1.33;;
26413;SDS011;14108;53.668;10.288;2022-09-06T12:27:21;2.00;;;1.33;;
26413;SDS011;14108;53.668;10.288;2022-09-06T12:29:53;4.10;;;1.75;;
26413;SDS011;14108;53.668;10.288;2022-09-06T12:32:24;2.83;;;1.62;;
26413;SDS011;14108;53.668;10.288;2022-09-06T12:34:51;2.58;;;1.77;;
26413;SDS011;14108;53.668;10.288;2022-09-06T12:37:29;5.95;;;1.77;;
26413;SDS011;14108;53.668;10.288;2022-09-06T12:39:57;3.35;;;1.95;;
26413;SDS011;14108;53.668;10.288;2022-09-06T12:42:24;7.70;;;1.70;;
26413;SDS011;14108;53.668;10.288;2022-09-06T12:44:51;3.08;;;1.95;;
26413;SDS011;14108;53.668;10.288;2022-09-06T12:47:21;1.70;;;1.23;;
26413;SDS011;14108;53.668;10.288;2022-09-06T12:50:04;2.40;;;1.60;;
26413;SDS011;14108;53.668;10.288;2022-09-06T12:52:31;2.17;;;1.55;;
26413;SDS011;14108;53.668;10.288;2022-09-06T12:54:58;2.30;;;1.52;;
26413;SDS011;14108;53.668;10.288;2022-09-06T12:57:25;2.72;;;1.65;;
26413;SDS011;14108;53.668;10.288;2022-09-06T12:59:53;4.70;;;1.75;;
26413;SDS011;14108;53.668;10.288;2022-09-06T13:02:22;3.78;;;1.48;;
26413;SDS011;14108;53.668;10.288;2022-09-06T13:04:51;1.70;;;1.50;;
26413;SDS011;14108;53.668;10.288;2022-09-06T13:07:19;1.83;;;1.35;;
26413;SDS011;14108;53.668;10.288;2022-09-06T13:09:48;2.58;;;1.30;;
26413;SDS011;14108;53.668;10.288;2022-09-06T13:12:17;4.43;;;1.45;;
26413;SDS011;14108;53.668;10.288;2022-09-06T13:14:45;3.92;;;1.55;;
26413;SDS011;14108;53.668;10.288;2022-09-06T13:17:21;1.95;;;1.30;;
26413;SDS011;14108;53.668;10.288;2022-09-06T13:19:49;3.37;;;1.58;;
26413;SDS011;14108;53.668;10.288;2022-09-06T13:25:02;3.83;;;1.35;;
26413;SDS011;14108;53.668;10.288;2022-09-06T13:27:32;3.70;;;1.27;;
26413;SDS011;14108;53.668;10.288;2022-09-06T13:30:02;5.70;;;1.60;;
26413;SDS011;14108;53.668;10.288;2022-09-06T13:32:32;2.25;;;1.48;;
26413;SDS011;14108;53.668;10.288;2022-09-06T13:34:59;2.17;;;1.50;;
26413;SDS011;14108;53.668;10.288;2022-09-06T13:37:28;4.05;;;1.65;;
26413;SDS011;14108;53.668;10.288;2022-09-06T13:39:56;2.33;;;1.70;;
26413;SDS011;14108;53.668;10.288;2022-09-06T13:42:24;3.90;;;1.40;;
26413;SDS011;14108;53.668;10.288;2022-09-06T13:44:52;3.78;;;1.42;;
26413;SDS011;14108;53.668;10.288;2022-09-06T13:47:19;2.53;;;1.52;;
26413;SDS011;14108;53.668;10.288;2022-09-06T13:49:46;2.20;;;1.62;;
26413;SDS011;14108;53.668;10.288;2022-09-06T13:52:14;4.62;;;1.62;;
26413;SDS011;14108;53.668;10.288;2022-09-06T13:54:41;7.47;;;2.00;;
26413;SDS011;14108;53.668;10.288;2022-09-06T13:57:08;6.00;;;1.90;;
26413;SDS011;14108;53.668;10.288;2022-09-06T13:59:35;3.58;;;1.60;;
26413;SDS011;14108;53.668;10.288;2022-09-06T14:02:03;4.12;;;1.87;;
26413;SDS011;14108;53.668;10.288;2022-09-06T14:04:30;4.20;;;1.40;;
26413;SDS011;14108;53.668;10.288;2022-09-06T14:06:57;2.97;;;1.58;;
26413;SDS011;14108;53.668;10.288;2022-09-06T14:09:24;7.62;;;2.28;;
26413;SDS011;14108;53.668;10.288;2022-09-06T14:14:55;3.37;;;1.80;;
26413;SDS011;14108;53.668;10.288;2022-09-06T14:17:22;3.42;;;1.67;;
26413;SDS011;14108;53.668;10.288;2022-09-06T14:19:49;3.12;;;1.50;;
26413;SDS011;14108;53.668;10.288;2022-09-06T14:22:16;2.37;;;1.52;;
26413;SDS011;14108;53.668;10.288;2022-09-06T14:24:43;3.78;;;1.58;;
26413;SDS011;14108;53.668;10.288;2022-09-06T14:27:10;3.33;;;1.52;;
26413;SDS011;14108;53.668;10.288;2022-09-06T14:29:37;3.97;;;1.58;;
26413;SDS011;14108;53.668;10.288;2022-09-06T14:32:04;2.17;;;1.55;;
26413;SDS011;14108;53.668;10.288;2022-09-06T14:34:32;4.70;;;1.98;;
26413;SDS011;14108;53.668;10.288;2022-09-06T14:36:59;4.78;;;1.90;;
26413;SDS011;14108;53.668;10.288;2022-09-06T14:39:26;4.75;;;1.70;;
26413;SDS011;14108;53.668;10.288;2022-09-06T14:41:53;3.15;;;1.48;;
26413;SDS011;14108;53.668;10.288;2022-09-06T14:44:20;2.40;;;1.60;;
26413;SDS011;14108;53.668;10.288;2022-09-06T14:46:47;2.95;;;1.70;;
26413;SDS011;14108;53.668;10.288;2022-09-06T14:49:18;3.33;;;1.65;;
26413;SDS011;14108;53.668;10.288;2022-09-06T14:51:45;2.72;;;1.42;;
26413;SDS011;14108;53.668;10.288;2022-09-06T14:54:14;2.03;;;1.55;;
26413;SDS011;14108;53.668;10.288;2022-09-06T14:56:42;7.03;;;1.85;;
26413;SDS011;14108;53.668;10.288;2022-09-06T14:59:09;2.80;;;1.65;;
26413;SDS011;14108;53.668;10.288;2022-09-06T15:01:36;2.17;;;1.87;;
26413;SDS011;14108;53.668;10.288;2022-09-06T15:04:04;4.75;;;1.85;;
26413;SDS011;14108;53.668;10.288;2022-09-06T15:06:32;4.03;;;1.90;;